createdAt,value
2018-12-27T00:01:45.126Z,1.90
2018-12-27T00:04:15.873Z,1.90
2018-12-27T00:06:45.169Z,1.90
2018-12-27T00:09:14.537Z,1.90
2018-12-27T00:11:43.739Z,1.90
2018-12-27T00:14:13.077Z,2.00
2018-12-27T00:16:44.251Z,1.90
2018-12-27T00:19:17.825Z,2.00
2018-12-27T00:21:47.494Z,1.90
2018-12-27T00:24:16.747Z,1.90
2018-12-27T00:26:46.841Z,1.90
2018-12-27T00:29:19.887Z,1.90
2018-12-27T00:31:49.595Z,1.90
2018-12-27T00:34:19.232Z,2.00
2018-12-27T00:36:56.489Z,2.00
2018-12-27T00:39:29.277Z,2.00
2018-12-27T00:41:59.088Z,2.00
2018-12-27T00:44:28.876Z,2.00
2018-12-27T00:46:59.544Z,2.00
2018-12-27T00:49:29.139Z,2.00
2018-12-27T00:51:58.752Z,2.00
2018-12-27T00:54:28.123Z,2.00
2018-12-27T00:56:57.465Z,2.00
2018-12-27T00:59:26.742Z,2.00
2018-12-27T01:01:56.230Z,2.00
2018-12-27T01:04:25.696Z,2.00
2018-12-27T01:06:55.142Z,2.00
2018-12-27T01:09:24.638Z,2.00
2018-12-27T01:11:53.886Z,2.00
2018-12-27T01:14:23.201Z,2.00
2018-12-27T01:16:52.565Z,2.10
2018-12-27T01:19:21.780Z,2.00
2018-12-27T01:21:51.091Z,2.00
2018-12-27T01:24:20.331Z,2.00
2018-12-27T01:26:49.693Z,2.00
2018-12-27T01:29:18.949Z,2.00
2018-12-27T01:31:50.723Z,1.90
2018-12-27T01:34:19.513Z,1.90
2018-12-27T01:36:48.941Z,1.90
2018-12-27T01:39:18.287Z,1.90
2018-12-27T01:41:47.589Z,1.90
2018-12-27T01:44:16.911Z,1.90
2018-12-27T01:46:46.315Z,1.90
2018-12-27T01:49:15.785Z,1.90
2018-12-27T01:51:45.136Z,2.00
2018-12-27T01:54:14.574Z,2.00
2018-12-27T01:56:43.933Z,2.00
2018-12-27T01:59:13.261Z,2.00
2018-12-27T02:01:42.797Z,2.00
2018-12-27T02:04:12.237Z,2.00
2018-12-27T02:06:41.690Z,1.90
2018-12-27T02:09:11.052Z,1.90
2018-12-27T02:11:42.172Z,1.90
2018-12-27T02:14:11.592Z,1.90
2018-12-27T02:16:40.952Z,2.00
2018-12-27T02:19:10.381Z,1.90
2018-12-27T02:21:39.820Z,1.90
2018-12-27T02:24:09.184Z,1.90
2018-12-27T02:26:38.552Z,1.90
2018-12-27T02:29:07.911Z,1.90
2018-12-27T02:31:37.358Z,1.90
2018-12-27T02:34:06.652Z,1.90
2018-12-27T02:36:35.990Z,1.90
2018-12-27T02:39:06.827Z,1.90
2018-12-27T02:41:36.289Z,1.90
2018-12-27T02:44:05.626Z,1.90
2018-12-27T02:46:34.982Z,1.90
2018-12-27T02:49:04.319Z,1.90
2018-12-27T02:51:33.700Z,2.00
2018-12-27T02:54:03.165Z,2.10
2018-12-27T02:56:32.544Z,2.00
2018-12-27T02:59:01.910Z,1.90
2018-12-27T03:01:31.488Z,1.90
2018-12-27T03:04:03.219Z,1.80
2018-12-27T03:06:32.619Z,1.80
2018-12-27T03:09:02.012Z,1.80
2018-12-27T03:11:31.369Z,1.70
2018-12-27T03:14:00.651Z,1.70
2018-12-27T03:16:29.765Z,1.70
2018-12-27T03:18:59.125Z,1.70
2018-12-27T03:21:28.503Z,1.70
2018-12-27T03:23:59.717Z,1.60
2018-12-27T03:26:29.161Z,1.60
2018-12-27T03:28:58.548Z,1.60
2018-12-27T03:31:27.906Z,1.70
2018-12-27T03:33:57.257Z,1.70
2018-12-27T03:36:26.531Z,1.70
2018-12-27T03:38:55.931Z,1.70
2018-12-27T03:41:25.291Z,1.80
2018-12-27T03:43:54.617Z,1.70
2018-12-27T03:46:23.964Z,1.70
2018-12-27T03:48:53.328Z,1.70
2018-12-27T03:51:22.711Z,1.80
2018-12-27T03:53:52.072Z,1.80
2018-12-27T03:56:21.372Z,1.80
2018-12-27T03:58:51.940Z,1.70
2018-12-27T04:01:21.272Z,1.70
2018-12-27T04:03:50.501Z,1.60
2018-12-27T04:06:19.870Z,1.70
2018-12-27T04:08:49.142Z,1.60
2018-12-27T04:11:18.342Z,1.60
2018-12-27T04:13:47.783Z,1.60
2018-12-27T04:16:17.076Z,1.70
2018-12-27T04:18:46.244Z,1.70
2018-12-27T04:21:15.574Z,1.70
2018-12-27T04:23:44.858Z,1.60
2018-12-27T04:26:14.846Z,1.60
2018-12-27T04:28:43.966Z,1.60
2018-12-27T04:31:13.455Z,1.60
2018-12-27T04:33:43.165Z,1.50
2018-12-27T04:36:12.595Z,1.60
2018-12-27T04:38:41.732Z,1.50
2018-12-27T04:41:10.986Z,1.50
2018-12-27T04:43:40.675Z,1.40
2018-12-27T04:46:09.883Z,1.30
2018-12-27T04:48:39.112Z,1.30
2018-12-27T04:51:08.276Z,1.30
2018-12-27T04:53:37.493Z,1.30
2018-12-27T04:56:06.720Z,1.30
2018-12-27T04:58:35.930Z,1.30
2018-12-27T05:01:05.070Z,1.20
2018-12-27T05:03:34.293Z,1.20
2018-12-27T05:06:03.474Z,1.10
2018-12-27T05:08:32.667Z,1.10
2018-12-27T05:11:01.906Z,1.10
2018-12-27T05:13:31.124Z,1.20
2018-12-27T05:16:00.310Z,1.10
2018-12-27T05:18:29.518Z,1.10
2018-12-27T05:20:58.730Z,1.10
2018-12-27T05:23:27.939Z,1.10
2018-12-27T05:25:57.136Z,1.10
2018-12-27T05:28:26.410Z,1.10
2018-12-27T05:30:55.697Z,1.10
2018-12-27T05:33:24.857Z,1.10
2018-12-27T05:35:54.023Z,1.20
2018-12-27T05:38:23.249Z,1.20
2018-12-27T05:40:52.529Z,1.10
2018-12-27T05:43:21.723Z,1.10
2018-12-27T05:45:50.895Z,1.10
2018-12-27T05:48:20.057Z,1.10
2018-12-27T05:50:49.328Z,1.10
2018-12-27T05:53:18.691Z,1.10
2018-12-27T05:55:47.832Z,1.10
2018-12-27T05:58:17.043Z,1.10
2018-12-27T06:00:46.214Z,1.10
2018-12-27T06:03:15.442Z,1.20
2018-12-27T06:05:44.674Z,1.20
2018-12-27T06:08:13.870Z,1.20
2018-12-27T06:10:43.046Z,1.20
2018-12-27T06:13:12.205Z,1.20
2018-12-27T06:15:41.488Z,1.20
2018-12-27T06:18:10.687Z,1.10
2018-12-27T06:20:40.018Z,1.10
2018-12-27T06:23:11.294Z,1.00
2018-12-27T06:25:40.639Z,1.00
2018-12-27T06:28:09.828Z,0.90
2018-12-27T06:30:39.088Z,0.90
2018-12-27T06:33:08.290Z,0.90
2018-12-27T06:35:37.440Z,0.90
2018-12-27T06:38:06.596Z,1.00
2018-12-27T06:40:35.806Z,1.00
2018-12-27T06:43:05.003Z,1.00
2018-12-27T06:45:34.163Z,0.90
2018-12-27T06:48:03.363Z,0.90
2018-12-27T06:50:32.621Z,0.90
2018-12-27T06:53:01.784Z,0.80
2018-12-27T06:55:31.022Z,0.70
2018-12-27T06:58:00.250Z,0.80
2018-12-27T07:00:29.489Z,0.80
2018-12-27T07:02:58.774Z,0.80
2018-12-27T07:05:27.977Z,0.70
2018-12-27T07:07:57.138Z,0.80
2018-12-27T07:10:26.046Z,0.80
2018-12-27T07:12:55.262Z,0.90
2018-12-27T07:15:24.440Z,0.90
2018-12-27T07:17:53.622Z,1.00
2018-12-27T07:20:22.887Z,1.00
2018-12-27T07:22:52.155Z,1.00
2018-12-27T07:25:21.321Z,1.00
2018-12-27T07:27:50.585Z,1.00
2018-12-27T07:30:19.907Z,1.00
2018-12-27T07:32:49.275Z,0.90
2018-12-27T07:35:18.579Z,1.00
2018-12-27T07:37:47.863Z,1.10
2018-12-27T07:40:17.011Z,1.10
2018-12-27T07:42:46.156Z,1.10
2018-12-27T07:45:15.347Z,1.10
2018-12-27T07:47:45.173Z,1.00
2018-12-27T07:50:14.397Z,1.00
2018-12-27T07:52:43.697Z,1.10
2018-12-27T07:55:12.849Z,1.40
2018-12-27T07:57:42.098Z,2.10
2018-12-27T08:00:11.381Z,2.80
2018-12-27T08:02:40.538Z,3.10
2018-12-27T08:05:09.851Z,3.30
2018-12-27T08:07:40.663Z,3.40
2018-12-27T08:10:09.854Z,3.50
2018-12-27T08:12:39.059Z,3.40
2018-12-27T08:15:08.341Z,3.60
2018-12-27T08:17:37.719Z,3.80
2018-12-27T08:20:08.362Z,3.90
2018-12-27T08:22:37.531Z,3.90
2018-12-27T08:25:06.852Z,3.80
2018-12-27T08:27:36.034Z,3.90
2018-12-27T08:30:06.591Z,4.10
2018-12-27T08:32:36.257Z,4.20
2018-12-27T08:35:11.605Z,4.40
2018-12-27T08:37:39.347Z,4.20
2018-12-27T08:40:08.510Z,4.10
2018-12-27T08:42:37.765Z,4.00
2018-12-27T08:45:07.096Z,4.00
2018-12-27T08:47:36.317Z,4.00
2018-12-27T08:50:06.710Z,4.00
2018-12-27T08:52:36.413Z,4.00
2018-12-27T08:55:05.989Z,4.10
2018-12-27T08:57:35.263Z,4.10
2018-12-27T09:00:05.055Z,4.20
2018-12-27T09:02:34.203Z,4.00
2018-12-27T09:05:03.452Z,3.90
2018-12-27T09:07:32.763Z,3.70
2018-12-27T09:10:02.048Z,3.50
2018-12-27T09:12:31.806Z,3.30
2018-12-27T09:15:01.312Z,3.10
2018-12-27T09:17:31.046Z,2.90
2018-12-27T09:20:00.274Z,2.80
2018-12-27T09:22:30.608Z,2.80
2018-12-27T09:25:00.073Z,2.80
2018-12-27T09:27:29.384Z,2.90
2018-12-27T09:29:58.830Z,3.00
2018-12-27T09:32:28.194Z,3.00
2018-12-27T09:34:57.496Z,3.20
2018-12-27T09:37:26.690Z,3.40
2018-12-27T09:39:55.897Z,3.50
2018-12-27T09:42:26.907Z,3.80
2018-12-27T09:44:58.013Z,4.10
2018-12-27T09:47:27.379Z,4.40
2018-12-27T09:49:56.547Z,5.10
2018-12-27T09:52:25.874Z,5.90
2018-12-27T09:54:55.327Z,6.10
2018-12-27T09:57:28.429Z,6.30
2018-12-27T10:00:01.292Z,6.50
2018-12-27T10:02:33.768Z,6.80
2018-12-27T10:05:03.413Z,6.60
2018-12-27T10:07:32.806Z,6.80
2018-12-27T10:10:02.006Z,7.00
2018-12-27T10:12:38.712Z,7.00
2018-12-27T10:15:09.510Z,7.20
2018-12-27T10:17:38.952Z,7.50
2018-12-27T10:20:08.415Z,7.90
2018-12-27T10:22:37.574Z,8.40
2018-12-27T10:25:06.924Z,8.50
2018-12-27T10:27:36.250Z,8.70
2018-12-27T10:30:07.407Z,8.80
2018-12-27T10:32:36.729Z,8.80
2018-12-27T10:35:06.248Z,8.80
2018-12-27T10:37:35.502Z,8.60
2018-12-27T10:40:07.178Z,8.50
2018-12-27T10:42:36.382Z,8.40
2018-12-27T10:45:07.835Z,8.50
2018-12-27T10:47:37.121Z,8.80
2018-12-27T10:50:07.411Z,8.70
2018-12-27T10:52:36.695Z,8.50
2018-12-27T10:55:07.903Z,8.60
2018-12-27T10:57:37.166Z,8.60
2018-12-27T11:00:08.689Z,8.40
2018-12-27T11:02:38.268Z,8.20
2018-12-27T11:05:09.848Z,7.80
2018-12-27T11:07:38.772Z,7.70
2018-12-27T11:10:09.552Z,7.30
2018-12-27T11:12:40.935Z,7.00
2018-12-27T11:15:10.197Z,6.90
2018-12-27T11:17:39.452Z,6.60
2018-12-27T11:20:08.715Z,6.40
2018-12-27T11:22:38.051Z,6.30
2018-12-27T11:25:07.223Z,6.20
2018-12-27T11:27:36.519Z,6.20
2018-12-27T11:30:06.660Z,6.40
2018-12-27T11:32:35.927Z,6.40
2018-12-27T11:35:05.305Z,6.30
2018-12-27T11:37:34.811Z,6.40
2018-12-27T11:40:04.887Z,6.60
2018-12-27T11:42:34.074Z,6.90
2018-12-27T11:45:03.463Z,6.90
2018-12-27T11:47:35.022Z,7.00
2018-12-27T11:50:04.302Z,7.10
2018-12-27T11:52:33.515Z,7.20
2018-12-27T11:55:02.850Z,7.10
2018-12-27T11:57:32.154Z,7.00
2018-12-27T12:00:01.410Z,6.90
2018-12-27T12:02:31.259Z,6.80
2018-12-27T12:05:00.846Z,6.60
2018-12-27T12:07:30.137Z,6.50
2018-12-27T12:09:59.478Z,6.50
2018-12-27T12:12:28.728Z,6.30
2018-12-27T12:14:58.096Z,6.10
2018-12-27T12:17:27.303Z,6.00
2018-12-27T12:19:57.030Z,5.90
2018-12-27T12:22:26.301Z,5.90
2018-12-27T12:24:55.619Z,5.80
2018-12-27T12:27:24.920Z,5.70
2018-12-27T12:29:54.133Z,5.70
2018-12-27T12:32:23.740Z,5.80
2018-12-27T12:34:55.418Z,5.80
2018-12-27T12:37:25.355Z,5.80
2018-12-27T12:39:57.088Z,5.70
2018-12-27T12:42:32.732Z,5.70
2018-12-27T12:44:57.204Z,5.70
2018-12-27T12:47:26.479Z,5.70
2018-12-27T12:49:59.086Z,5.70
2018-12-27T12:52:28.408Z,5.70
2018-12-27T12:54:57.685Z,5.80
2018-12-27T12:57:27.060Z,5.70
2018-12-27T12:59:56.427Z,5.80
2018-12-27T13:02:30.319Z,5.80
2018-12-27T13:04:59.863Z,5.80
2018-12-27T13:07:29.299Z,5.80
2018-12-27T13:09:58.645Z,6.00
2018-12-27T13:12:27.787Z,5.90
2018-12-27T13:14:57.058Z,5.90
2018-12-27T13:17:26.372Z,5.90
2018-12-27T13:19:55.542Z,6.00
2018-12-27T13:22:24.766Z,6.00
2018-12-27T13:24:54.043Z,6.00
2018-12-27T13:27:23.248Z,6.00
2018-12-27T13:29:52.642Z,6.00
2018-12-27T13:32:24.075Z,5.90
2018-12-27T13:34:53.291Z,6.00
2018-12-27T13:37:22.585Z,6.10
2018-12-27T13:39:51.803Z,6.00
2018-12-27T13:42:21.007Z,6.00
2018-12-27T13:44:50.217Z,6.00
2018-12-27T13:47:19.414Z,6.00
2018-12-27T13:49:48.738Z,6.00
2018-12-27T13:52:18.037Z,6.00
2018-12-27T13:54:47.258Z,5.90
2018-12-27T13:57:17.140Z,5.90
2018-12-27T13:59:46.304Z,5.90
2018-12-27T14:02:15.511Z,5.80
2018-12-27T14:04:44.760Z,5.90
2018-12-27T14:07:13.916Z,5.80
2018-12-27T14:09:43.137Z,5.80
2018-12-27T14:12:12.412Z,5.80
2018-12-27T14:14:41.982Z,5.80
2018-12-27T14:17:11.133Z,5.80
2018-12-27T14:19:40.381Z,5.80
2018-12-27T14:22:09.754Z,5.90
2018-12-27T14:24:38.939Z,6.10
2018-12-27T14:27:08.110Z,6.00
2018-12-27T14:29:37.368Z,6.00
2018-12-27T14:32:06.754Z,6.00
2018-12-27T14:34:36.047Z,5.90
2018-12-27T14:37:06.124Z,5.90
2018-12-27T14:39:35.260Z,5.80
2018-12-27T14:42:04.472Z,5.80
2018-12-27T14:44:33.618Z,5.80
2018-12-27T14:47:05.040Z,5.70
2018-12-27T14:49:34.321Z,5.70
2018-12-27T14:52:03.563Z,5.60
2018-12-27T14:54:32.716Z,5.50
2018-12-27T14:57:02.462Z,5.50
2018-12-27T14:59:31.730Z,5.40
2018-12-27T15:02:01.124Z,5.40
2018-12-27T15:04:30.406Z,5.60
2018-12-27T15:06:59.710Z,5.60
2018-12-27T15:09:28.979Z,5.60
2018-12-27T15:11:58.258Z,5.60
2018-12-27T15:14:27.531Z,5.50
2018-12-27T15:16:56.830Z,5.50
2018-12-27T15:19:26.036Z,5.40
2018-12-27T15:21:55.298Z,5.40
2018-12-27T15:24:24.477Z,5.40
2018-12-27T15:26:53.770Z,5.30
2018-12-27T15:29:23.101Z,5.30
2018-12-27T15:31:52.250Z,5.30
2018-12-27T15:34:21.422Z,5.30
2018-12-27T15:36:54.307Z,5.40
2018-12-27T15:39:21.936Z,5.40
2018-12-27T15:41:51.276Z,5.40
2018-12-27T15:44:20.491Z,5.40
2018-12-27T15:46:49.660Z,5.30
2018-12-27T15:49:18.816Z,5.30
2018-12-27T15:51:48.092Z,5.30
2018-12-27T15:54:19.860Z,5.30
2018-12-27T15:56:49.161Z,5.30
2018-12-27T15:59:18.504Z,5.30
2018-12-27T16:01:47.746Z,5.20
2018-12-27T16:04:16.925Z,5.20
2018-12-27T16:06:46.147Z,5.20
2018-12-27T16:09:15.474Z,5.20
2018-12-27T16:11:44.706Z,5.30
2018-12-27T16:14:29.628Z,5.20
2018-12-27T16:17:01.785Z,5.30
2018-12-27T16:19:31.063Z,5.30
2018-12-27T16:22:18.583Z,5.30
2018-12-27T16:24:47.919Z,5.20
2018-12-27T16:27:17.202Z,5.20
2018-12-27T16:29:46.459Z,5.20
2018-12-27T16:32:15.718Z,5.20
2018-12-27T16:34:45.055Z,5.10
2018-12-27T16:37:14.389Z,5.10
2018-12-27T16:39:43.618Z,5.10
2018-12-27T16:42:13.059Z,5.10
2018-12-27T16:44:42.267Z,5.00
2018-12-27T16:47:11.526Z,4.90
2018-12-27T16:49:40.700Z,4.90
2018-12-27T16:52:09.914Z,4.90
2018-12-27T16:54:39.212Z,5.00
2018-12-27T16:57:08.465Z,4.90
2018-12-27T16:59:37.726Z,4.90
2018-12-27T17:02:07.072Z,4.80
2018-12-27T17:04:36.226Z,4.80
2018-12-27T17:07:05.482Z,4.70
2018-12-27T17:09:34.622Z,4.70
2018-12-27T17:12:04.062Z,4.70
2018-12-27T17:14:33.284Z,4.70
2018-12-27T17:17:02.634Z,4.70
2018-12-27T17:19:31.806Z,4.60
2018-12-27T17:22:01.149Z,4.60
2018-12-27T17:24:30.390Z,4.60
2018-12-27T17:26:59.592Z,4.50
2018-12-27T17:29:29.004Z,4.60
2018-12-27T17:31:58.401Z,4.60
2018-12-27T17:34:27.740Z,4.50
2018-12-27T17:36:56.990Z,4.50
2018-12-27T17:39:26.694Z,4.50
2018-12-27T17:41:56.032Z,4.50
2018-12-27T17:44:25.214Z,4.40
2018-12-27T17:46:54.373Z,4.40
2018-12-27T17:49:23.683Z,4.40
2018-12-27T17:51:52.972Z,4.40
2018-12-27T17:54:22.261Z,4.30
2018-12-27T17:56:51.592Z,4.40
2018-12-27T17:59:21.326Z,4.40
2018-12-27T18:01:50.840Z,4.40
2018-12-27T18:04:20.356Z,4.30
2018-12-27T18:06:49.710Z,4.30
2018-12-27T18:09:19.042Z,4.30
2018-12-27T18:11:48.336Z,4.20
2018-12-27T18:14:17.620Z,4.20
2018-12-27T18:16:46.822Z,4.30
2018-12-27T18:19:28.118Z,4.30
2018-12-27T18:21:57.493Z,4.20
2018-12-27T18:24:26.745Z,4.20
2018-12-27T18:26:58.920Z,4.20
2018-12-27T18:29:28.183Z,4.20
2018-12-27T18:31:57.533Z,4.50
2018-12-27T18:34:29.023Z,4.40
2018-12-27T18:36:58.315Z,4.20
2018-12-27T18:39:27.647Z,4.30
2018-12-27T18:41:56.995Z,4.10
2018-12-27T18:44:26.305Z,4.00
2018-12-27T18:46:55.519Z,4.00
2018-12-27T18:49:24.711Z,4.00
2018-12-27T18:51:53.995Z,3.90
2018-12-27T18:54:26.347Z,3.90
2018-12-27T18:56:55.566Z,3.80
2018-12-27T18:59:25.148Z,3.80
2018-12-27T19:01:57.718Z,3.70
2018-12-27T19:04:27.232Z,3.70
2018-12-27T19:06:57.199Z,3.70
2018-12-27T19:09:26.944Z,3.70
2018-12-27T19:12:32.294Z,3.70
2018-12-27T19:15:05.698Z,3.60
2018-12-27T19:18:00.294Z,3.60
2018-12-27T19:20:29.540Z,3.60
2018-12-27T19:23:07.958Z,3.60
2018-12-27T19:25:37.265Z,3.60
2018-12-27T19:28:06.538Z,3.60
2018-12-27T19:30:35.864Z,3.50
2018-12-27T19:33:05.182Z,3.50
2018-12-27T19:35:39.383Z,3.50
2018-12-27T19:38:08.838Z,3.40
2018-12-27T19:40:38.157Z,3.50
2018-12-27T19:43:08.061Z,3.50
2018-12-27T19:45:37.394Z,3.40
2018-12-27T19:48:09.303Z,3.40
2018-12-27T19:50:43.565Z,3.30
2018-12-27T19:53:13.562Z,3.30
2018-12-27T19:55:43.557Z,3.30
2018-12-27T19:58:15.238Z,3.30
2018-12-27T20:00:44.816Z,3.30
2018-12-27T20:03:14.508Z,3.20
2018-12-27T20:05:46.609Z,3.10
2018-12-27T20:08:19.790Z,3.10
2018-12-27T20:10:49.005Z,3.20
2018-12-27T20:13:18.291Z,3.20
2018-12-27T20:15:47.946Z,3.20
2018-12-27T20:18:17.233Z,3.20
2018-12-27T20:20:46.707Z,3.10
2018-12-27T20:23:18.641Z,3.10
2018-12-27T20:25:48.196Z,3.10
2018-12-27T20:28:17.588Z,3.20
2018-12-27T20:30:47.149Z,3.20
2018-12-27T20:33:16.841Z,3.20
2018-12-27T20:35:48.424Z,3.20
2018-12-27T20:38:18.012Z,3.20
2018-12-27T20:40:47.588Z,3.10
2018-12-27T20:43:16.930Z,3.10
2018-12-27T20:45:47.296Z,3.10
2018-12-27T20:48:16.632Z,3.10
2018-12-27T20:50:45.982Z,3.10
2018-12-27T20:53:15.310Z,3.10
2018-12-27T20:55:49.166Z,3.10
2018-12-27T20:58:18.964Z,3.30
2018-12-27T21:00:48.644Z,3.40
2018-12-27T21:03:20.488Z,3.30
2018-12-27T21:05:50.040Z,3.30
2018-12-27T21:08:21.107Z,3.30
2018-12-27T21:10:50.344Z,3.30
2018-12-27T21:13:19.630Z,3.20
2018-12-27T21:15:49.042Z,3.30
2018-12-27T21:18:18.301Z,3.30
2018-12-27T21:20:47.616Z,3.30
2018-12-27T21:23:16.946Z,3.30
2018-12-27T21:25:46.690Z,3.30
2018-12-27T21:28:16.023Z,3.30
2018-12-27T21:30:45.154Z,3.20
2018-12-27T21:33:14.516Z,3.20
2018-12-27T21:35:43.858Z,3.20
2018-12-27T21:38:13.065Z,3.20
2018-12-27T21:40:42.378Z,3.20
2018-12-27T21:43:11.752Z,3.20
2018-12-27T21:45:41.110Z,3.20
2018-12-27T21:48:10.443Z,3.20
2018-12-27T21:50:39.960Z,3.20
2018-12-27T21:53:09.482Z,3.20
2018-12-27T21:55:38.748Z,3.10
2018-12-27T21:58:08.108Z,3.10
2018-12-27T22:00:37.688Z,3.20
2018-12-27T22:03:09.542Z,3.10
2018-12-27T22:05:38.800Z,3.20
2018-12-27T22:08:10.398Z,3.20
2018-12-27T22:10:39.756Z,3.20
2018-12-27T22:13:09.424Z,3.30
2018-12-27T22:15:38.612Z,3.30
2018-12-27T22:18:07.900Z,3.30
2018-12-27T22:20:39.287Z,3.30
2018-12-27T22:23:08.479Z,3.30
2018-12-27T22:25:38.422Z,3.30
2018-12-27T22:28:08.524Z,3.30
2018-12-27T22:30:38.000Z,3.30
2018-12-27T22:33:07.660Z,3.30
2018-12-27T22:35:37.630Z,3.40
2018-12-27T22:38:07.535Z,3.30
2018-12-27T22:40:37.055Z,3.30
2018-12-27T22:43:07.250Z,3.30
2018-12-27T22:45:37.535Z,3.30
2018-12-27T22:48:08.742Z,3.30
2018-12-27T22:50:40.982Z,3.30
2018-12-27T22:53:10.466Z,3.30
2018-12-27T22:55:39.886Z,3.30
2018-12-27T22:58:12.450Z,3.40
2018-12-27T23:00:44.438Z,3.40
2018-12-27T23:03:13.884Z,3.40
2018-12-27T23:05:46.000Z,3.40
2018-12-27T23:08:17.838Z,3.40
2018-12-27T23:10:47.346Z,3.50
2018-12-27T23:13:16.771Z,3.50
2018-12-27T23:15:49.458Z,3.60
2018-12-27T23:18:19.152Z,3.60
2018-12-27T23:20:48.548Z,3.60
2018-12-27T23:23:17.754Z,3.60
2018-12-27T23:25:47.263Z,3.70
2018-12-27T23:28:20.755Z,3.60
2018-12-27T23:30:48.177Z,3.70
2018-12-27T23:33:18.425Z,3.80
2018-12-27T23:35:51.023Z,3.90
2018-12-27T23:38:20.814Z,3.80
2018-12-27T23:40:50.093Z,3.70
2018-12-27T23:43:19.517Z,3.70
2018-12-27T23:45:51.981Z,3.60
2018-12-27T23:48:24.055Z,3.60
2018-12-27T23:50:53.766Z,3.50
2018-12-27T23:53:26.354Z,3.50
2018-12-27T23:55:56.279Z,3.60
2018-12-27T23:58:27.569Z,3.60
